Egmondgracht — PDWG — position and weather

sailwx.info

Track history (hours):
 
Tides and Currents Weather Stations Pressure Air Temp Water Temp Dewpoint Dewpoint Depression Visibility Wind Speed Wind Dir Waves Ship Positions

Egmondgracht

Last reported at 2014-Aug-29 12:20 UTC. Time now 2014-Aug-29 14:21 UTC.
Position N 38°28' E 000°28'.

Length 136 m; beam 19 m; draft 9 m.

Type: Cargo ship. MMSI: 245716000.

Date/timePositionNaut miles runAvg speedWind from/ knotsBaromVisibWave heightAir tempDewpointWater temp
2014-Aug-29 12:20N 38°28' E 000°28'2111.7
2014-Aug-29 10:30N 38°12' E 000°10'1211.4
2014-Aug-29 09:25N 38°02' E 000°01'1011.4
2014-Aug-29 08:33N 37°55' W 000°07'1211.1
2014-Aug-29 07:29N 37°46' W 000°18'1011.0
2014-Aug-29 06:33N 37°38' W 000°26'1211.0
2014-Aug-29 05:26N 37°29' W 000°36'1011.0
2014-Aug-29 04:33N 37°22' W 000°45'9011.1
2014-Aug-28 20:24N 36°23' W 002°11'1111.3
2014-Aug-28 19:26N 36°21' W 002°24'14211.8
2014-Aug-28 07:22N 35°60' W 005°18'7112.3
2014-Aug-28 01:33N 36°01' W 006°46'1111.4
2014-Aug-28 00:33N 36°04' W 006°60'1111.0
2014-Aug-27 23:33N 36°07' W 007°13'1110.9
2014-Aug-27 22:33N 36°10' W 007°26'1110.7
2014-Aug-27 21:33N 36°12' W 007°39'1010.5
2014-Aug-27 20:33N 36°15' W 007°51'1110.8
2014-Aug-27 19:33N 36°18' W 008°04'2210.5
2014-Aug-27 17:28N 36°23' W 008°31'1110.6
2014-Aug-27 16:27N 36°26' W 008°43'1010.7
2014-Aug-27 15:33N 36°29' W 008°55'  
2014-Aug-24 00:33N 50°24' W 001°28'1514.5
2014-Aug-23 23:33N 50°31' W 001°08'1211.7
2014-Aug-23 22:33N 50°41' W 000°58'9 8.9
2014-Aug-23 21:33N 50°46' W 001°10'9 8.8
2014-Aug-23 20:33N 50°51' W 001°21'4 3.9
2014-Aug-23 19:31N 50°54' W 001°25'0 0.0
2014-Aug-22 23:22N 50°54' W 001°25'0 0.0
2014-Aug-22 19:16N 50°54' W 001°25'0 0.0
2014-Aug-22 12:13N 50°54' W 001°25'0 0.0
2014-Aug-22 11:33N 50°54' W 001°25'0 0.0
2014-Aug-22 10:30N 50°54' W 001°25'0 0.0
2014-Aug-22 06:27N 50°54' W 001°25'5 5.3
2014-Aug-22 05:33N 50°51' W 001°20'5 4.7
2014-Aug-22 04:33N 50°47' W 001°17'8 7.8
2014-Aug-22 03:33N 50°45' W 001°05'7 6.6
2014-Aug-22 02:33N 50°41' W 000°57'7 6.6
2014-Aug-22 01:33N 50°35' W 000°51'6 6.2
2014-Aug-22 00:33N 50°33' W 000°42'7 7.4
2014-Aug-21 23:33N 50°33' W 000°30'1111.0
2014-Aug-21 22:32N 50°32' W 000°13'1211.4
2014-Aug-21 21:32N 50°33' E 000°05'1111.3
2014-Aug-21 20:33N 50°36' E 000°22'1110.6
2014-Aug-21 19:33N 50°40' E 000°38'1010.5
2014-Aug-21 18:33N 50°46' E 000°51'1110.8
2014-Aug-21 17:33N 50°52' E 001°05'1211.8
2014-Aug-21 16:33N 50°60' E 001°19'1212.3
2014-Aug-21 15:33N 51°07' E 001°35'1211.9
2014-Aug-21 14:33N 51°16' E 001°48'1111.3
2014-Aug-21 13:33N 51°26' E 001°55'1111.0
2014-Aug-21 12:33N 51°35' E 002°07'9311.6
2014-Aug-21 04:33N 52°46' E 003°43'1312.8
2014-Aug-21 03:33N 52°56' E 003°57'1212.2
2014-Aug-21 02:33N 53°04' E 004°12'1111.4
2014-Aug-21 01:33N 53°12' E 004°25'1111.3
2014-Aug-21 00:33N 53°23' E 004°33'1110.9
2014-Aug-20 23:33N 53°30' E 004°46'1212.3
2014-Aug-20 22:33N 53°35' E 005°05'1312.7
2014-Aug-20 21:33N 53°39' E 005°25'1312.7
2014-Aug-20 20:33N 53°43' E 005°46'6811.3
2014-Aug-20 14:33N 54°01' E 007°37'1111.0
2014-Aug-20 13:33N 54°01' E 007°55'1211.7
2014-Aug-20 12:33N 54°00' E 008°15'1313.3
2014-Aug-20 11:33N 53°58' E 008°37'1313.0
2014-Aug-20 10:33N 53°51' E 008°56'8 8.2
2014-Aug-20 09:33N 53°54' E 009°09'1 1.5
2014-Aug-20 08:33N 53°55' E 009°11'7 6.6
2014-Aug-20 07:33N 53°60' E 009°18'5 4.9
2014-Aug-20 06:33N 54°05' E 009°19'6 6.2
2014-Aug-20 05:32N 54°10' E 009°25'7 6.9
2014-Aug-20 04:30N 54°13' E 009°36'70 6.4
2014-Aug-19 17:31N 54°30' E 011°33'9 9.4
2014-Aug-19 16:33N 54°27' E 011°47'1010.0
2014-Aug-19 15:33N 54°26' E 012°05'9 9.5
2014-Aug-19 14:33N 54°34' E 012°13'  
Track history (hours):
 
Tides and Currents Weather Stations Pressure Air Temp Water Temp Dewpoint Dewpoint Depression Visibility Wind Speed Wind Dir Waves Ship Positions

Egmondgracht

Last reported at 2014-Aug-29 12:20 UTC. Time now 2014-Aug-29 14:21 UTC.
Position N 38°28' E 000°28'.

Length 136 m; beam 19 m; draft 9 m.

Type: Cargo ship. MMSI: 245716000.

Date/timePositionNaut miles runAvg speedWind from/ knotsBaromVisibWave heightAir tempDewpointWater temp
2014-Aug-29 12:20N 38°28' E 000°28'2111.7
2014-Aug-29 10:30N 38°12' E 000°10'1211.4
2014-Aug-29 09:25N 38°02' E 000°01'1011.4
2014-Aug-29 08:33N 37°55' W 000°07'1211.1
2014-Aug-29 07:29N 37°46' W 000°18'1011.0
2014-Aug-29 06:33N 37°38' W 000°26'1211.0
2014-Aug-29 05:26N 37°29' W 000°36'1011.0
2014-Aug-29 04:33N 37°22' W 000°45'9011.1
2014-Aug-28 20:24N 36°23' W 002°11'1111.3
2014-Aug-28 19:26N 36°21' W 002°24'14211.8
2014-Aug-28 07:22N 35°60' W 005°18'7112.3
2014-Aug-28 01:33N 36°01' W 006°46'1111.4
2014-Aug-28 00:33N 36°04' W 006°60'1111.0
2014-Aug-27 23:33N 36°07' W 007°13'1110.9
2014-Aug-27 22:33N 36°10' W 007°26'1110.7
2014-Aug-27 21:33N 36°12' W 007°39'1010.5
2014-Aug-27 20:33N 36°15' W 007°51'1110.8
2014-Aug-27 19:33N 36°18' W 008°04'2210.5
2014-Aug-27 17:28N 36°23' W 008°31'1110.6
2014-Aug-27 16:27N 36°26' W 008°43'1010.7
2014-Aug-27 15:33N 36°29' W 008°55'  
2014-Aug-24 00:33N 50°24' W 001°28'1514.5
2014-Aug-23 23:33N 50°31' W 001°08'1211.7
2014-Aug-23 22:33N 50°41' W 000°58'9 8.9
2014-Aug-23 21:33N 50°46' W 001°10'9 8.8
2014-Aug-23 20:33N 50°51' W 001°21'4 3.9
2014-Aug-23 19:31N 50°54' W 001°25'0 0.0
2014-Aug-22 23:22N 50°54' W 001°25'0 0.0
2014-Aug-22 19:16N 50°54' W 001°25'0 0.0
2014-Aug-22 12:13N 50°54' W 001°25'0 0.0
2014-Aug-22 11:33N 50°54' W 001°25'0 0.0
2014-Aug-22 10:30N 50°54' W 001°25'0 0.0
2014-Aug-22 06:27N 50°54' W 001°25'5 5.3
2014-Aug-22 05:33N 50°51' W 001°20'5 4.7
2014-Aug-22 04:33N 50°47' W 001°17'8 7.8
2014-Aug-22 03:33N 50°45' W 001°05'7 6.6
2014-Aug-22 02:33N 50°41' W 000°57'7 6.6
2014-Aug-22 01:33N 50°35' W 000°51'6 6.2
2014-Aug-22 00:33N 50°33' W 000°42'7 7.4
2014-Aug-21 23:33N 50°33' W 000°30'1111.0
2014-Aug-21 22:32N 50°32' W 000°13'1211.4
2014-Aug-21 21:32N 50°33' E 000°05'1111.3
2014-Aug-21 20:33N 50°36' E 000°22'1110.6
2014-Aug-21 19:33N 50°40' E 000°38'1010.5
2014-Aug-21 18:33N 50°46' E 000°51'1110.8
2014-Aug-21 17:33N 50°52' E 001°05'1211.8
2014-Aug-21 16:33N 50°60' E 001°19'1212.3
2014-Aug-21 15:33N 51°07' E 001°35'1211.9
2014-Aug-21 14:33N 51°16' E 001°48'1111.3
2014-Aug-21 13:33N 51°26' E 001°55'1111.0
2014-Aug-21 12:33N 51°35' E 002°07'9311.6
2014-Aug-21 04:33N 52°46' E 003°43'1312.8
2014-Aug-21 03:33N 52°56' E 003°57'1212.2
2014-Aug-21 02:33N 53°04' E 004°12'1111.4
2014-Aug-21 01:33N 53°12' E 004°25'1111.3
2014-Aug-21 00:33N 53°23' E 004°33'1110.9
2014-Aug-20 23:33N 53°30' E 004°46'1212.3
2014-Aug-20 22:33N 53°35' E 005°05'1312.7
2014-Aug-20 21:33N 53°39' E 005°25'1312.7
2014-Aug-20 20:33N 53°43' E 005°46'6811.3
2014-Aug-20 14:33N 54°01' E 007°37'1111.0
2014-Aug-20 13:33N 54°01' E 007°55'1211.7
2014-Aug-20 12:33N 54°00' E 008°15'1313.3
2014-Aug-20 11:33N 53°58' E 008°37'1313.0
2014-Aug-20 10:33N 53°51' E 008°56'8 8.2
2014-Aug-20 09:33N 53°54' E 009°09'1 1.5
2014-Aug-20 08:33N 53°55' E 009°11'7 6.6
2014-Aug-20 07:33N 53°60' E 009°18'5 4.9
2014-Aug-20 06:33N 54°05' E 009°19'6 6.2
2014-Aug-20 05:32N 54°10' E 009°25'7 6.9
2014-Aug-20 04:30N 54°13' E 009°36'70 6.4
2014-Aug-19 17:31N 54°30' E 011°33'9 9.4
2014-Aug-19 16:33N 54°27' E 011°47'1010.0
2014-Aug-19 15:33N 54°26' E 012°05'9 9.5
2014-Aug-19 14:33N 54°34' E 012°13'  

Dump ship's entire track history